Leuchtturm Alte Weser, Germany

2:24 AM CET on February 27, 2015 (GMT +0100)
W'ooge-Airport | Change Station
CLOSE
Current Station
Personal Weather Station
Location: Wangerooge, NI
Elevation: 6 ft
Nearby Weather Stations

Elev 6 ft 53.79 °N, 7.91 °E | Updated 9 minutes ago

Rain
Rain Drizzle Mist
40.2 °F
Feels Like 32 °F
N
14.0
Wind Variable Wind from NW
Gusts 18.0 mph

Today
High -- | Low -- °F
--% Chance of Precip.
Yesterday
High -- | Low -- °F
Precip. -- in
7:21 AM 6:00 PM
Waxing Gibbous, 64% visible
Pressure 29.77 in
Visibility 1.6 miles
Clouds Mostly Cloudy 300 ft
Windchill 32 °F
Dew Point 32 °F
Humidity 72%
Rainfall 0.04 in
Snow Depth Not available.
UV 0 out of 12
Pollen Not available.
Air Quality Not available.
Flu Activity Not available.
METAR ETMN 270020Z 18008KT 2500 RADZ BR BKN003 05/04 Q1008 YLO

More Conditions Fewer Conditions

Pressure 29.77 in
Visibility 1.6 miles
Clouds Mostly Cloudy 300 ft
Windchill 32 °F
Dew Point 32 °F
Humidity 72%
Rainfall 0.04 in
Snow Depth Not available.
UV 0 out of 12
Pollen Not available.
Air Quality Not available.
Flu Activity Not available.
METAR ETMN 270020Z 18008KT 2500 RADZ BR BKN003 05/04 Q1008 YLO

More Conditions Fewer Conditions

10-Day Weather Forecast

Almanac

Astronomy

Feb. 27, 2015 Rise Set
Actual Time
Civil Twilight
Nautical Twilight
Astronomical Twilight
Moon
Length of Visible Light
Length of Day
Tomorrow will be .
, % of the Moon is Illuminated

Today's Extremes

Country Highs Country Lows

Community

WunderPhotos

Upload Photos

1,800,553 photos uploaded!

WunderBlogs® & News

Nearby

Air Quality

  Air Quality AQ Index Pollutant
Not available.

Snow Depth

Station Depth Elevation

Earthquake Activity

City Distance Mag. Time & Date
Minimum magnitude displayed is 2.5.

Coastal Water Temperatures

Place Temperature

Nearby Weather Stations